首页
METAR-TAF:

METAR-TAF

机场 :

上海 / 浦东, 中华人民共和国

上海浦东国际机场

纬度: 31-07N, 经度: 121-46E, 海拔: 4米

当前天气观测

该预报发布于11分钟前的00:00 UTC
风速12节,风向
温度 7°C
湿度 93%
气压 1026 hPa
能見度: 4000
多云层高于900英尺
小雨, 轻雾

METAR: ZSPD 250000Z 01006MPS 4000 -RA BR BKN009 07/06 Q1026 BECMG TL0030 BKN013

时间: 08:11 (00:11 UTC)

预报

该预报发布于2小时和53分钟前的21:18 UTC
预报有效从25日的 00点(UTC)到 25日的 24点(UTC)
风速8节,风向
能見度: 5000
多云层高于1100英尺
轻雾

TAF: ZSPD 242118Z 2500/2524 01004MPS 5000 BR BKN011 TX11/2506Z TN04/2522Z

超过4000个机场的气象观测和天气预报(METAR&TAF报告)。

可查询的气象台以黄色和红色小点在地图上表示。

将鼠标移到小点上方,可查看气象台名称。

然后点击查看天气观测和预报。

如需切换地图:点击带黑十字的绿色按钮放大地图;点击带横线的绿色按钮缩小地图;或者点击绿色箭头查看邻近地区的地图。


METAR-TAF: